Time;durP1;ratioP1;P1;durP2;ratioP2;P2;SDS_P1;SDS_P2;PMS_P1;PMS_P2;Temp;Humidity;BMP_temperature;BMP_pressure;BME280_temperature;BME280_humidity;BME280_pressure;Samples;Min_cycle;Max_cycle;Signal;HPM_P1;HPM_P2
2022/08/22 00:00:29;;;;;;;2.53;0.60;;;27.60;46.70;;;;;;5041502;27;88975;-48
2022/08/22 00:03:11;;;;;;;1.50;0.73;;;27.60;46.80;;;;;;5042421;27;87010;-49
2022/08/22 00:05:51;;;;;;;1.73;0.70;;;27.60;47.50;;;;;;5043272;27;87125;-48
2022/08/22 00:08:23;;;;;;;1.27;0.60;;;27.60;46.80;;;;;;5053034;27;89240;-48
2022/08/22 00:10:54;;;;;;;0.87;0.50;;;27.60;46.90;;;;;;5058959;27;87825;-48
2022/08/22 00:13:27;;;;;;;1.10;0.53;;;27.60;46.80;;;;;;5046024;27;87021;-48
2022/08/22 00:15:59;;;;;;;1.77;0.40;;;27.60;46.90;;;;;;5042216;27;86963;-48
2022/08/22 00:18:31;;;;;;;1.37;0.60;;;27.60;47.60;;;;;;5054297;27;90138;-49
2022/08/22 00:21:07;;;;;;;0.47;0.47;;;27.50;46.90;;;;;;5060103;27;89926;-48
2022/08/22 00:23:37;;;;;;;0.87;0.50;;;27.50;47.00;;;;;;5060464;27;87101;-48
2022/08/22 00:26:08;;;;;;;3.13;0.70;;;27.50;47.00;;;;;;5060620;27;87243;-48
2022/08/22 00:28:38;;;;;;;1.90;1.00;;;27.60;47.70;;;;;;5061321;27;89094;-48
2022/08/22 00:31:12;;;;;;;1.10;0.67;;;27.60;47.00;;;;;;5060186;27;87102;-48
2022/08/22 00:33:42;;;;;;;3.00;0.50;;;27.60;47.10;;;;;;5041377;27;87007;-48
2022/08/22 00:36:15;;;;;;;2.20;0.90;;;27.60;47.00;;;;;;5055436;27;86412;-49
2022/08/22 00:38:46;;;;;;;0.77;0.70;;;27.60;47.70;;;;;;5041772;28;88099;-48
2022/08/22 00:41:28;;;;;;;0.70;0.43;;;27.50;47.00;;;;;;5040493;28;89006;-48
2022/08/22 00:44:31;;;;;;;2.77;0.70;;;27.50;47.00;;;;;;5012828;28;88054;-49
2022/08/22 00:47:25;;;;;;;2.43;0.60;;;27.50;47.10;;;;;;5024330;28;87058;-49
2022/08/22 00:50:25;;;;;;;0.77;0.73;;;27.40;47.10;;;;;;4997944;28;89532;-49
2022/08/22 00:53:00;;;;;;;1.07;0.90;;;27.40;47.20;;;;;;4988155;28;87746;-48
2022/08/22 00:55:48;;;;;;;2.30;0.63;;;27.30;47.20;;;;;;5021428;28;86827;-49
2022/08/22 00:58:29;;;;;;;2.47;0.63;;;27.30;47.30;;;;;;5021764;28;87126;-49
2022/08/22 01:00:59;;;;;;;0.63;0.53;;;27.30;47.30;;;;;;5022329;28;89243;-49
2022/08/22 01:03:43;;;;;;;2.43;0.80;;;27.30;47.30;;;;;;5037261;28;87507;-48
2022/08/22 01:06:19;;;;;;;1.37;0.87;;;27.20;47.40;;;;;;5040969;28;87241;-48
2022/08/22 01:08:57;;;;;;;2.63;0.93;;;27.20;47.40;;;;;;5039735;28;87043;-49
2022/08/22 01:11:38;;;;;;;2.90;0.70;;;27.10;47.40;;;;;;5039372;28;90027;-49
2022/08/22 01:14:14;;;;;;;0.70;0.70;;;27.20;47.50;;;;;;5000903;28;89894;-48
2022/08/22 01:16:54;;;;;;;1.60;0.83;;;27.20;47.50;;;;;;5016546;28;86971;-48
2022/08/22 01:19:56;;;;;;;4.00;0.80;;;27.20;47.50;;;;;;5029596;28;87930;-49
2022/08/22 01:22:55;;;;;;;1.17;0.90;;;27.20;47.50;;;;;;5027892;28;89389;-48
2022/08/22 01:25:48;;;;;;;3.60;0.70;;;27.20;47.50;;;;;;5040994;28;88845;-48
2022/08/22 01:28:44;;;;;;;0.60;0.50;;;27.30;48.20;;;;;;5039246;28;87095;-49
2022/08/22 01:31:45;;;;;;;2.13;0.70;;;27.20;47.50;;;;;;5015132;28;86180;-48
2022/08/22 01:34:36;;;;;;;1.63;0.73;;;27.20;47.50;;;;;;5013463;28;89183;-49
2022/08/22 01:37:39;;;;;;;2.40;0.70;;;27.20;47.50;;;;;;5026629;28;87908;-49
2022/08/22 01:40:55;;;;;;;0.63;0.50;;;27.20;47.50;;;;;;5038215;28;88002;-49
2022/08/22 01:43:31;;;;;;;0.67;0.50;;;27.20;47.60;;;;;;5021047;28;86939;-48
2022/08/22 01:46:36;;;;;;;2.40;0.60;;;27.20;47.60;;;;;;5026713;28;87650;-48
2022/08/22 01:49:08;;;;;;;0.73;0.70;;;27.20;47.70;;;;;;5022117;28;89250;-49
2022/08/22 01:51:40;;;;;;;3.40;0.83;;;27.20;47.70;;;;;;5026571;28;87934;-49
2022/08/22 01:54:11;;;;;;;0.63;0.60;;;27.20;47.80;;;;;;5015473;28;88657;-49
2022/08/22 01:56:40;;;;;;;0.90;0.83;;;27.20;47.80;;;;;;5025707;28;89290;-49
2022/08/22 01:59:10;;;;;;;4.27;0.87;;;27.10;47.80;;;;;;5027909;28;88837;-49
2022/08/22 02:01:46;;;;;;;2.33;0.60;;;27.10;47.80;;;;;;5024531;28;88602;-48
2022/08/22 02:04:16;;;;;;;0.90;0.63;;;27.10;47.90;;;;;;5020965;28;87027;-49
2022/08/22 02:06:50;;;;;;;2.23;0.93;;;27.10;47.90;;;;;;5019912;28;89065;-49
2022/08/22 02:09:26;;;;;;;1.63;1.07;;;27.10;47.90;;;;;;5020807;28;89881;-48
2022/08/22 02:11:55;;;;;;;1.87;0.93;;;27.10;48.00;;;;;;5033264;28;86976;-49
2022/08/22 02:14:29;;;;;;;2.23;0.90;;;27.10;48.00;;;;;;5040670;28;87114;-49
2022/08/22 02:16:58;;;;;;;0.50;0.50;;;27.10;48.10;;;;;;5025801;28;88230;-49
2022/08/22 02:19:33;;;;;;;2.30;0.80;;;27.10;48.10;;;;;;5023740;28;89031;-49
2022/08/22 02:22:04;;;;;;;1.17;0.90;;;27.10;48.20;;;;;;5038489;28;86868;-49
2022/08/22 02:24:46;;;;;;;1.03;0.67;;;27.10;48.10;;;;;;5025584;28;86345;-49
2022/08/22 02:27:17;;;;;;;3.20;1.03;;;27.10;48.20;;;;;;5015921;28;88123;-49
2022/08/22 02:29:48;;;;;;;3.23;0.80;;;27.00;48.10;;;;;;5044172;28;87737;-49
2022/08/22 02:32:20;;;;;;;1.77;0.73;;;27.00;48.20;;;;;;5036996;28;87986;-49
2022/08/22 02:34:58;;;;;;;0.70;0.67;;;27.00;48.20;;;;;;5003626;28;86936;-49
2022/08/22 02:37:36;;;;;;;0.83;0.83;;;27.00;48.20;;;;;;5018234;28;87114;-49
2022/08/22 02:40:09;;;;;;;3.03;1.30;;;27.10;48.30;;;;;;5043986;27;87819;-49
2022/08/22 02:42:41;;;;;;;1.03;0.97;;;27.00;48.30;;;;;;5051132;27;87430;-49
2022/08/22 02:45:17;;;;;;;1.60;0.90;;;27.00;48.30;;;;;;5052866;27;87133;-49
2022/08/22 02:47:48;;;;;;;2.07;1.00;;;26.90;48.20;;;;;;5048343;27;89147;-48
2022/08/22 02:50:19;;;;;;;6.13;1.60;;;27.00;48.60;;;;;;5049036;27;88949;-48
2022/08/22 02:52:54;;;;;;;1.27;1.10;;;26.90;48.30;;;;;;5043589;27;87041;-49
2022/08/22 02:55:31;;;;;;;1.40;1.20;;;26.90;48.30;;;;;;5051504;27;86949;-49
2022/08/22 02:58:03;;;;;;;2.40;1.43;;;26.90;48.40;;;;;;5061020;27;90107;-49
2022/08/22 03:00:42;;;;;;;1.90;1.40;;;26.90;48.40;;;;;;5061407;27;88631;-49
2022/08/22 03:03:16;;;;;;;2.03;0.93;;;26.90;48.40;;;;;;5060238;27;86858;-49
2022/08/22 03:05:50;;;;;;;0.90;0.63;;;26.90;48.40;;;;;;5043688;27;87016;-49
2022/08/22 03:08:23;;;;;;;2.00;0.90;;;26.80;48.50;;;;;;5042983;28;88149;-49
2022/08/22 03:10:59;;;;;;;2.73;0.80;;;26.70;48.50;;;;;;5042291;28;87093;-49
2022/08/22 03:13:33;;;;;;;1.00;0.80;;;26.70;48.70;;;;;;5043254;28;87053;-49
2022/08/22 03:16:04;;;;;;;1.27;0.87;;;26.70;48.70;;;;;;5045670;27;88038;-49
2022/08/22 03:18:40;;;;;;;1.50;1.10;;;26.70;48.80;;;;;;5050659;27;89296;-49
2022/08/22 03:21:14;;;;;;;1.80;1.13;;;26.60;48.70;;;;;;5042644;28;89096;-49
2022/08/22 03:23:46;;;;;;;8.67;1.27;;;26.60;48.80;;;;;;5042893;28;88008;-49
2022/08/22 03:26:16;;;;;;;3.20;0.90;;;26.60;48.80;;;;;;5043480;28;87029;-49
2022/08/22 03:28:48;;;;;;;2.20;0.70;;;26.60;48.80;;;;;;5041863;27;89200;-49
2022/08/22 03:31:27;;;;;;;2.20;1.20;;;26.60;48.90;;;;;;5042611;27;87105;-49
2022/08/22 03:34:17;;;;;;;5.10;1.27;;;26.60;48.80;;;;;;5043125;27;87572;-49
2022/08/22 03:36:46;;;;;;;1.10;1.00;;;26.50;49.20;;;;;;5043617;27;87112;-49
2022/08/22 03:39:19;;;;;;;2.30;1.10;;;26.50;49.60;;;;;;5035050;27;89241;-49
2022/08/22 03:41:58;;;;;;;2.77;1.17;;;26.50;49.00;;;;;;5042352;28;88855;-49
2022/08/22 03:44:41;;;;;;;2.10;1.17;;;26.40;49.10;;;;;;5042500;28;86889;-48
2022/08/22 03:47:28;;;;;;;2.90;1.00;;;26.40;49.10;;;;;;5041149;28;87023;-49
2022/08/22 03:50:08;;;;;;;3.10;1.03;;;26.40;49.10;;;;;;5042040;27;90305;-49
2022/08/22 03:53:23;;;;;;;3.70;1.20;;;26.50;49.10;;;;;;5041609;28;88681;-49
2022/08/22 03:56:23;;;;;;;2.53;1.23;;;26.50;49.10;;;;;;4957342;28;87197;-49
2022/08/22 03:59:31;;;;;;;3.83;1.30;;;26.50;49.10;;;;;;5039405;28;86920;-49
2022/08/22 04:02:24;;;;;;;2.30;0.97;;;26.50;49.10;;;;;;5021992;28;89214;-49
2022/08/22 04:05:29;;;;;;;1.30;1.07;;;26.40;49.10;;;;;;5038525;28;89321;-49
2022/08/22 04:08:30;;;;;;;2.77;1.30;;;26.40;49.10;;;;;;5041894;28;87073;-49
2022/08/22 04:11:26;;;;;;;2.90;1.33;;;26.40;49.10;;;;;;5042158;28;88642;-49
2022/08/22 04:14:15;;;;;;;3.53;1.20;;;26.40;49.10;;;;;;5027708;28;89307;-48
2022/08/22 04:17:13;;;;;;;2.00;1.33;;;26.40;49.20;;;;;;5041660;27;87935;-49
2022/08/22 04:20:07;;;;;;;2.00;1.43;;;26.40;49.20;;;;;;5000371;28;87951;-49
2022/08/22 04:23:15;;;;;;;2.00;1.40;;;26.40;49.20;;;;;;5042067;28;87089;-49
2022/08/22 04:25:47;;;;;;;3.50;1.67;;;26.40;49.20;;;;;;5019756;28;88203;-49
2022/08/22 04:28:18;;;;;;;1.87;1.10;;;26.40;49.30;;;;;;5041460;28;87891;-48
2022/08/22 04:30:50;;;;;;;3.60;1.27;;;26.40;49.30;;;;;;5041868;28;86934;-49
2022/08/22 04:33:21;;;;;;;2.80;1.30;;;26.40;49.20;;;;;;5040950;28;87037;-49
2022/08/22 04:35:57;;;;;;;2.77;1.37;;;26.50;49.20;;;;;;5041842;28;89315;-49
2022/08/22 04:38:28;;;;;;;1.83;1.00;;;26.60;49.20;;;;;;5041545;27;87837;-49
2022/08/22 04:40:58;;;;;;;4.13;1.27;;;26.60;49.10;;;;;;5037814;27;87097;-49
2022/08/22 04:43:34;;;;;;;2.10;1.43;;;26.60;49.10;;;;;;5021717;28;87048;-49
2022/08/22 04:46:06;;;;;;;2.20;1.10;;;26.60;48.90;;;;;;5020474;28;89078;-49
2022/08/22 04:48:36;;;;;;;1.20;0.87;;;26.60;49.00;;;;;;5021535;28;90060;-49
2022/08/22 04:51:06;;;;;;;0.97;0.93;;;26.60;49.00;;;;;;5021749;28;86991;-48
2022/08/22 04:53:48;;;;;;;1.10;0.83;;;26.60;49.10;;;;;;5033682;28;86767;-48
2022/08/22 04:56:22;;;;;;;2.80;1.00;;;26.60;49.10;;;;;;5028118;28;89291;-49
2022/08/22 04:58:54;;;;;;;1.70;1.03;;;26.60;49.10;;;;;;5037921;28;88880;-49
2022/08/22 05:01:25;;;;;;;1.17;1.07;;;26.60;49.00;;;;;;5040615;27;88723;-49
2022/08/22 05:03:56;;;;;;;0.70;0.70;;;26.70;49.10;;;;;;5039994;28;86292;-48
2022/08/22 05:06:27;;;;;;;1.23;0.90;;;26.70;49.00;;;;;;5026745;28;88906;-49
2022/08/22 05:08:55;;;;;;;1.87;1.00;;;26.70;49.00;;;;;;5034922;28;89177;-48
2022/08/22 05:11:23;;;;;;;3.80;0.97;;;26.70;49.00;;;;;;5024191;28;88611;-49
2022/08/22 05:13:53;;;;;;;3.10;0.67;;;26.70;49.00;;;;;;5024700;28;87159;-49
2022/08/22 05:16:25;;;;;;;0.70;0.60;;;26.70;49.00;;;;;;5039594;28;89249;-48
2022/08/22 05:18:54;;;;;;;1.43;0.90;;;26.70;49.00;;;;;;5024391;28;87967;-48
2022/08/22 05:21:24;;;;;;;3.10;0.90;;;26.70;49.00;;;;;;5029557;28;86926;-48
2022/08/22 05:23:55;;;;;;;2.47;0.70;;;26.70;48.90;;;;;;5041392;28;86964;-49
2022/08/22 05:26:23;;;;;;;0.77;0.77;;;26.70;48.90;;;;;;5040204;28;88120;-48
2022/08/22 05:28:53;;;;;;;3.07;0.80;;;26.70;48.90;;;;;;5039765;28;88812;-49
2022/08/22 05:31:25;;;;;;;3.50;0.97;;;26.70;49.00;;;;;;5020709;28;87015;-49
2022/08/22 05:33:54;;;;;;;3.17;0.83;;;26.70;49.00;;;;;;5020570;28;87127;-49
2022/08/22 05:36:23;;;;;;;2.30;1.00;;;26.70;49.00;;;;;;5036109;28;87946;-49
2022/08/22 05:38:52;;;;;;;5.67;0.90;;;26.70;49.00;;;;;;5036371;28;89953;-49
2022/08/22 05:41:23;;;;;;;2.20;0.93;;;26.70;48.90;;;;;;5019402;28;87131;-49
2022/08/22 05:43:52;;;;;;;3.90;1.13;;;26.70;48.90;;;;;;5020145;28;86954;-48
2022/08/22 05:46:22;;;;;;;1.80;0.73;;;26.80;48.90;;;;;;5019783;28;89125;-48
2022/08/22 05:48:57;;;;;;;0.80;0.80;;;26.80;48.80;;;;;;5023916;28;88657;-48
2022/08/22 05:51:28;;;;;;;3.17;1.03;;;26.80;48.80;;;;;;5039628;27;86777;-49
2022/08/22 05:54:02;;;;;;;0.93;0.83;;;26.80;48.80;;;;;;5041975;28;86281;-49
2022/08/22 05:56:33;;;;;;;1.37;0.67;;;26.80;48.80;;;;;;5043739;28;89113;-49
2022/08/22 05:59:02;;;;;;;1.37;0.60;;;26.70;48.80;;;;;;5042438;28;88897;-49
2022/08/22 06:01:37;;;;;;;0.77;0.63;;;26.70;48.80;;;;;;5035276;28;88130;-49
2022/08/22 06:04:10;;;;;;;0.83;0.70;;;26.70;48.90;;;;;;5029545;28;87644;-49
2022/08/22 06:06:40;;;;;;;0.90;0.60;;;26.70;48.90;;;;;;5043201;28;88096;-49
2022/08/22 06:09:12;;;;;;;0.73;0.70;;;26.70;49.00;;;;;;5043453;28;87980;-49
2022/08/22 06:11:41;;;;;;;3.23;0.97;;;26.70;49.00;;;;;;5043370;28;87285;-49
2022/08/22 06:14:23;;;;;;;0.60;0.60;;;26.70;48.90;;;;;;5007654;28;87199;-49
2022/08/22 06:16:54;;;;;;;0.80;0.80;;;26.80;48.90;;;;;;5020620;28;88070;-49
2022/08/22 06:19:23;;;;;;;3.13;1.10;;;26.80;49.50;;;;;;5038770;28;87800;-49
2022/08/22 06:21:51;;;;;;;0.60;0.60;;;26.80;48.80;;;;;;5020369;28;87212;-49
2022/08/22 06:24:22;;;;;;;1.20;0.70;;;26.80;48.80;;;;;;5022859;28;87105;-49
2022/08/22 06:26:51;;;;;;;0.97;0.70;;;26.90;48.80;;;;;;5022002;28;90095;-51
2022/08/22 06:29:29;;;;;;;1.23;0.77;;;26.90;48.80;;;;;;5022246;28;87612;-49
2022/08/22 06:31:57;;;;;;;2.50;1.20;;;26.90;48.70;;;;;;5023028;28;87040;-49
2022/08/22 06:34:27;;;;;;;4.47;0.80;;;26.90;48.70;;;;;;5035573;28;87060;-49
2022/08/22 06:36:56;;;;;;;1.73;0.93;;;26.90;48.70;;;;;;5025138;28;88171;-49
2022/08/22 06:39:25;;;;;;;3.70;1.03;;;26.90;48.70;;;;;;4999201;27;1223917;-49
2022/08/22 06:41:57;;;;;;;1.57;1.47;;;26.90;48.70;;;;;;5043083;28;87016;-49
2022/08/22 06:44:30;;;;;;;1.33;1.10;;;26.90;48.70;;;;;;5042815;27;86156;-49
2022/08/22 06:47:00;;;;;;;1.23;0.80;;;26.90;48.70;;;;;;5040858;28;88213;-49
2022/08/22 06:49:29;;;;;;;1.80;1.10;;;26.90;48.70;;;;;;5043022;28;88878;-49
2022/08/22 06:51:59;;;;;;;2.03;0.90;;;26.90;48.80;;;;;;5041861;27;88110;-48
2022/08/22 06:54:27;;;;;;;2.77;0.90;;;26.90;48.70;;;;;;5042971;27;86953;-49
2022/08/22 06:57:01;;;;;;;0.60;0.60;;;26.90;48.70;;;;;;5041882;28;89172;-49
2022/08/22 06:59:30;;;;;;;2.30;1.30;;;26.90;48.70;;;;;;5042836;28;89323;-48
2022/08/22 07:02:01;;;;;;;3.13;1.00;;;26.90;48.70;;;;;;5041910;28;87100;-49
2022/08/22 07:04:30;;;;;;;3.53;1.00;;;26.90;48.70;;;;;;5043400;28;86736;-49
2022/08/22 07:06:59;;;;;;;1.77;0.77;;;26.90;48.70;;;;;;5042049;28;89337;-49
2022/08/22 07:09:28;;;;;;;0.93;0.70;;;26.90;48.70;;;;;;5043034;27;88004;-49
2022/08/22 07:11:57;;;;;;;3.03;0.97;;;27.00;48.70;;;;;;5041651;28;87137;-48
2022/08/22 07:14:28;;;;;;;1.23;1.00;;;26.90;48.70;;;;;;5043190;28;87040;-49
2022/08/22 07:16:57;;;;;;;1.30;0.97;;;26.80;48.70;;;;;;5041275;28;89350;-49
2022/08/22 07:19:27;;;;;;;3.10;0.83;;;26.70;48.80;;;;;;5041824;28;89871;-49
2022/08/22 07:21:57;;;;;;;1.83;1.00;;;26.70;48.90;;;;;;5043506;28;87019;-48
2022/08/22 07:24:27;;;;;;;1.43;1.33;;;26.70;49.00;;;;;;5042452;28;87011;-48
2022/08/22 07:27:15;;;;;;;1.40;1.00;;;26.70;49.00;;;;;;5042982;28;88092;-48
2022/08/22 07:29:46;;;;;;;0.80;0.80;;;26.70;49.10;;;;;;5043557;28;88859;-49
2022/08/22 07:32:17;;;;;;;4.20;1.10;;;26.70;49.10;;;;;;5043283;28;87089;-49
2022/08/22 07:35:10;;;;;;;1.27;0.77;;;26.60;49.10;;;;;;5043655;28;86249;-49
2022/08/22 07:38:04;;;;;;;2.03;1.00;;;26.60;49.10;;;;;;5037275;28;89312;-49
2022/08/22 07:40:34;;;;;;;1.00;0.83;;;26.60;49.20;;;;;;5040737;28;87756;-49
2022/08/22 07:43:06;;;;;;;5.23;1.17;;;26.70;49.10;;;;;;5042747;28;88032;-48
2022/08/22 07:45:37;;;;;;;1.63;0.53;;;26.70;49.10;;;;;;5043494;28;86999;-49
2022/08/22 07:48:16;;;;;;;7.43;1.07;;;26.70;49.10;;;;;;5042711;28;87037;-48
2022/08/22 07:51:04;;;;;;;3.07;1.03;;;26.70;49.20;;;;;;5042119;28;87625;-49
2022/08/22 07:53:39;;;;;;;3.10;1.07;;;26.70;49.10;;;;;;5042874;28;86904;-48
2022/08/22 07:56:09;;;;;;;2.37;1.50;;;26.70;49.20;;;;;;5042774;28;87019;-48
2022/08/22 07:58:39;;;;;;;1.50;0.93;;;26.70;49.20;;;;;;5041865;28;89092;-49
2022/08/22 08:01:08;;;;;;;4.53;0.90;;;26.70;49.20;;;;;;5042429;28;88839;-49
2022/08/22 08:03:37;;;;;;;2.70;0.93;;;26.70;49.20;;;;;;5042793;28;86992;-49
2022/08/22 08:06:06;;;;;;;2.10;0.97;;;26.80;49.10;;;;;;5042585;28;86984;-50
2022/08/22 08:08:38;;;;;;;4.43;1.30;;;26.80;49.10;;;;;;5042071;28;89201;-49
2022/08/22 08:11:08;;;;;;;1.07;0.90;;;26.80;49.10;;;;;;5042141;28;88873;-49
2022/08/22 08:13:38;;;;;;;2.57;1.13;;;26.80;49.10;;;;;;5042389;28;87436;-48
2022/08/22 08:16:07;;;;;;;2.30;1.10;;;26.80;49.20;;;;;;5042304;27;87135;-48
2022/08/22 08:18:35;;;;;;;0.73;0.60;;;26.80;49.30;;;;;;5041538;28;89120;-48
2022/08/22 08:21:04;;;;;;;5.30;0.93;;;26.80;49.30;;;;;;5042404;28;88977;-48
2022/08/22 08:23:36;;;;;;;1.00;0.73;;;26.80;49.30;;;;;;5041858;28;86950;-48
2022/08/22 08:26:09;;;;;;;1.73;1.00;;;26.80;49.30;;;;;;5040678;28;86670;-49
2022/08/22 08:28:38;;;;;;;1.33;0.77;;;26.70;49.30;;;;;;5040013;28;88370;-49
2022/08/22 08:31:10;;;;;;;0.97;0.87;;;26.70;49.40;;;;;;5041054;27;87991;-48
2022/08/22 08:33:41;;;;;;;1.00;0.90;;;26.70;49.40;;;;;;5041477;28;88021;-48
2022/08/22 08:36:16;;;;;;;1.37;1.03;;;26.80;49.50;;;;;;5041027;28;87019;-48
2022/08/22 08:38:52;;;;;;;0.97;0.80;;;26.80;49.40;;;;;;5041511;28;89254;-48
2022/08/22 08:41:58;;;;;;;1.73;0.60;;;26.90;50.00;;;;;;5041104;28;87171;-49
2022/08/22 08:44:38;;;;;;;3.90;1.20;;;26.90;49.30;;;;;;5041666;28;86891;-48
2022/08/22 08:47:40;;;;;;;1.47;0.70;;;26.90;49.20;;;;;;5041083;28;87160;-48
2022/08/22 08:50:45;;;;;;;0.90;0.80;;;26.90;49.20;;;;;;5001350;28;88319;-48
2022/08/22 08:53:49;;;;;;;1.63;0.77;;;26.90;49.20;;;;;;5001506;28;87972;-48
2022/08/22 08:56:23;;;;;;;2.20;0.70;;;26.90;49.10;;;;;;4999509;28;86882;-48
2022/08/22 08:58:57;;;;;;;0.80;0.80;;;26.90;49.10;;;;;;5000899;28;86990;-48
2022/08/22 09:02:04;;;;;;;2.37;1.03;;;27.00;49.10;;;;;;5000182;28;90105;-48
2022/08/22 09:04:50;;;;;;;2.07;1.20;;;26.90;49.60;;;;;;5001474;28;89870;-48
2022/08/22 09:07:52;;;;;;;1.47;0.80;;;26.90;48.90;;;;;;5000894;28;87010;-48
2022/08/22 09:10:39;;;;;;;1.73;0.97;;;26.90;48.90;;;;;;4984548;28;87119;-48
2022/08/22 09:13:33;;;;;;;1.60;0.80;;;26.90;48.90;;;;;;4999090;28;89314;-49
2022/08/22 09:16:17;;;;;;;6.60;1.53;;;26.90;48.80;;;;;;5001430;28;88852;-48
2022/08/22 09:19:06;;;;;;;3.37;1.40;;;26.90;48.80;;;;;;5010876;28;87086;-48
2022/08/22 09:22:14;;;;;;;2.47;1.20;;;26.90;48.80;;;;;;5021319;28;86349;-48
2022/08/22 09:25:10;;;;;;;3.90;1.20;;;26.90;48.70;;;;;;5016145;28;89217;-48
2022/08/22 09:27:41;;;;;;;1.27;0.93;;;26.90;48.50;;;;;;5019375;28;87760;-49
2022/08/22 09:30:10;;;;;;;4.20;1.40;;;27.00;48.50;;;;;;5020077;28;88925;-49
2022/08/22 09:33:00;;;;;;;1.50;1.27;;;27.00;48.40;;;;;;5020296;28;87159;-49
2022/08/22 09:35:33;;;;;;;2.50;1.33;;;27.10;48.30;;;;;;5019894;28;89125;-49
2022/08/22 09:38:15;;;;;;;2.87;1.40;;;27.10;48.20;;;;;;5018285;28;89149;-49
2022/08/22 09:40:50;;;;;;;2.23;0.63;;;27.10;48.20;;;;;;5037382;28;86995;-49
2022/08/22 09:43:19;;;;;;;2.30;1.30;;;27.10;48.10;;;;;;5039913;27;87125;-49
2022/08/22 09:45:53;;;;;;;1.77;0.87;;;27.00;47.90;;;;;;5041049;28;88082;-49
2022/08/22 09:48:34;;;;;;;6.27;1.47;;;27.10;48.00;;;;;;5040266;28;87781;-49
2022/08/22 09:51:10;;;;;;;3.03;1.30;;;27.10;48.00;;;;;;5041105;28;87136;-49
2022/08/22 09:54:25;;;;;;;1.97;1.03;;;27.10;47.90;;;;;;5041512;28;86925;-49
2022/08/22 09:57:01;;;;;;;1.70;0.70;;;27.10;47.80;;;;;;5040565;28;90023;-49
2022/08/22 09:59:42;;;;;;;0.50;0.50;;;27.10;47.70;;;;;;5040043;28;88646;-49
2022/08/22 10:02:19;;;;;;;0.60;0.60;;;27.10;47.70;;;;;;5040870;28;86902;-49
2022/08/22 10:04:55;;;;;;;2.47;1.00;;;27.10;47.70;;;;;;5040223;28;87123;-48
2022/08/22 10:07:35;;;;;;;4.33;0.83;;;27.10;47.60;;;;;;5039511;28;88383;-48
2022/08/22 10:10:10;;;;;;;0.77;0.53;;;27.10;47.50;;;;;;5039507;28;88869;-48
2022/08/22 10:12:44;;;;;;;5.33;1.23;;;27.20;47.40;;;;;;5038503;28;87387;-49
2022/08/22 10:15:20;;;;;;;1.00;0.60;;;27.20;47.30;;;;;;5038760;28;86456;-49
2022/08/22 10:17:57;;;;;;;1.53;0.67;;;27.20;47.10;;;;;;5038445;28;89200;-48
2022/08/22 10:20:29;;;;;;;0.80;0.67;;;27.30;47.20;;;;;;5039257;27;88849;-48
2022/08/22 10:23:00;;;;;;;3.23;0.80;;;27.30;47.00;;;;;;5037646;28;88002;-49
2022/08/22 10:25:34;;;;;;;2.53;1.00;;;27.30;46.90;;;;;;5035651;28;87056;-49
2022/08/22 10:28:19;;;;;;;0.73;0.60;;;27.30;47.40;;;;;;5038815;28;87933;-49
2022/08/22 10:30:54;;;;;;;1.17;0.73;;;27.40;46.80;;;;;;5037875;28;88910;-48
2022/08/22 10:33:26;;;;;;;2.83;0.80;;;27.50;46.60;;;;;;5037915;28;87081;-48
2022/08/22 10:36:02;;;;;;;1.73;1.17;;;27.50;46.50;;;;;;5037966;28;87184;-49
2022/08/22 10:38:34;;;;;;;3.03;1.80;;;27.60;46.50;;;;;;5055030;27;87988;-49
2022/08/22 10:41:17;;;;;;;6.17;2.83;;;27.60;46.40;;;;;;5059058;27;88986;-48
2022/08/22 10:43:51;;;;;;;7.83;3.33;;;27.70;46.20;;;;;;5056946;27;87055;-48
2022/08/22 10:46:30;;;;;;;7.90;3.10;;;27.70;46.10;;;;;;5041453;28;87144;-49
2022/08/22 10:49:01;;;;;;;6.20;2.00;;;27.80;46.00;;;;;;5040466;28;89125;-48
2022/08/22 10:51:44;;;;;;;2.73;1.77;;;27.80;45.90;;;;;;5039154;28;88660;-48
2022/08/22 10:54:32;;;;;;;4.60;1.23;;;27.80;45.80;;;;;;5041615;28;86964;-49
2022/08/22 10:57:08;;;;;;;3.60;1.43;;;27.90;45.70;;;;;;5038868;28;87080;-48
2022/08/22 10:59:39;;;;;;;0.93;0.90;;;27.90;45.60;;;;;;5039635;28;89121;-49
2022/08/22 11:02:19;;;;;;;3.30;1.00;;;27.90;45.60;;;;;;5040530;28;88827;-48
2022/08/22 11:04:57;;;;;;;2.37;0.83;;;27.90;45.40;;;;;;5041688;28;87006;-48
2022/08/22 11:07:45;;;;;;;0.97;0.80;;;28.00;45.30;;;;;;5041795;28;86522;-49
2022/08/22 11:10:25;;;;;;;1.77;1.10;;;28.00;45.40;;;;;;5040639;28;89183;-46
2022/08/22 11:13:02;;;;;;;1.17;0.97;;;28.00;45.20;;;;;;5039737;27;87560;-49
2022/08/22 11:15:58;;;;;;;1.30;0.60;;;28.00;45.10;;;;;;5039841;28;87979;-47
2022/08/22 11:18:34;;;;;;;3.20;0.80;;;27.90;45.00;;;;;;5034456;28;87070;-47
2022/08/22 11:21:05;;;;;;;1.30;0.80;;;27.90;45.00;;;;;;5040483;28;89090;-47
2022/08/22 11:23:43;;;;;;;3.43;1.10;;;27.90;45.00;;;;;;5040089;28;87747;-47
2022/08/22 11:26:19;;;;;;;0.80;0.80;;;27.90;45.00;;;;;;5027974;28;88500;-49
2022/08/22 11:29:23;;;;;;;2.97;0.90;;;27.90;44.90;;;;;;5038121;28;87091;-49
2022/08/22 11:31:56;;;;;;;2.70;1.10;;;28.00;44.80;;;;;;5039325;28;88853;-47
2022/08/22 11:34:43;;;;;;;0.80;0.80;;;28.00;44.70;;;;;;5041411;28;88651;-47
2022/08/22 11:37:18;;;;;;;2.87;1.57;;;28.00;44.80;;;;;;5041197;28;87281;-47
2022/08/22 11:40:02;;;;;;;3.27;1.50;;;28.00;44.80;;;;;;5040201;28;87098;-47
2022/08/22 11:42:31;;;;;;;0.97;0.70;;;28.00;44.70;;;;;;5038554;28;90095;-48
2022/08/22 11:45:00;;;;;;;4.53;0.80;;;28.10;44.60;;;;;;5039724;28;89768;-49
2022/08/22 11:47:30;;;;;;;2.93;0.80;;;28.00;44.60;;;;;;5040533;28;87097;-48
2022/08/22 11:49:59;;;;;;;1.60;1.10;;;28.10;44.60;;;;;;5041169;27;86997;-48
2022/08/22 11:52:42;;;;;;;3.90;1.63;;;28.10;45.30;;;;;;5040473;28;88265;-48
2022/08/22 11:55:25;;;;;;;2.60;1.30;;;28.20;44.70;;;;;;5038296;28;87892;-47
2022/08/22 11:58:06;;;;;;;1.20;1.10;;;28.20;44.60;;;;;;5038347;28;87262;-48
2022/08/22 12:00:38;;;;;;;1.90;0.80;;;28.20;44.60;;;;;;5040815;28;86447;-48
2022/08/22 12:03:19;;;;;;;1.40;0.93;;;28.20;44.50;;;;;;5040035;28;89095;-49
2022/08/22 12:05:51;;;;;;;1.17;0.90;;;28.20;44.50;;;;;;5039531;28;87703;-49
2022/08/22 12:08:39;;;;;;;2.37;1.00;;;28.20;44.50;;;;;;5038241;28;88010;-48
2022/08/22 12:11:11;;;;;;;2.43;0.73;;;28.20;44.50;;;;;;5040055;28;86985;-49
2022/08/22 12:13:43;;;;;;;2.63;1.27;;;28.20;44.40;;;;;;5038939;28;89223;-49
2022/08/22 12:16:14;;;;;;;1.17;0.93;;;28.20;44.50;;;;;;5041341;28;88832;-49
2022/08/22 12:18:47;;;;;;;0.90;0.60;;;28.20;44.40;;;;;;5041676;27;87055;-49
2022/08/22 12:21:34;;;;;;;1.37;0.90;;;28.30;44.50;;;;;;5040318;28;87087;-49
2022/08/22 12:24:32;;;;;;;1.67;0.90;;;28.30;44.40;;;;;;5040517;28;88817;-49
2022/08/22 12:27:25;;;;;;;2.27;0.97;;;28.30;44.40;;;;;;5039659;28;86526;-47
2022/08/22 12:30:06;;;;;;;2.60;0.80;;;28.30;44.40;;;;;;5040680;28;87414;-47
2022/08/22 12:33:06;;;;;;;1.40;1.30;;;28.30;44.40;;;;;;5040967;28;87080;-47
2022/08/22 12:35:42;;;;;;;2.17;0.77;;;28.30;44.50;;;;;;5038985;27;88977;-49
2022/08/22 12:38:21;;;;;;;1.70;0.70;;;28.30;44.30;;;;;;5038930;28;89645;-49
2022/08/22 12:41:32;;;;;;;1.40;0.70;;;28.30;44.30;;;;;;5021981;28;87058;-49
2022/08/22 12:44:12;;;;;;;2.90;1.07;;;28.30;44.30;;;;;;4967325;28;87213;-47
2022/08/22 12:46:49;;;;;;;0.80;0.80;;;28.30;44.20;;;;;;5012392;28;87885;-47
2022/08/22 12:49:29;;;;;;;1.57;0.73;;;28.30;44.20;;;;;;5017033;28;87816;-48
2022/08/22 12:52:01;;;;;;;1.50;1.00;;;28.30;44.10;;;;;;5018963;28;86964;-49
2022/08/22 12:54:59;;;;;;;1.07;0.97;;;28.30;44.10;;;;;;5031758;28;86331;-48
2022/08/22 12:57:33;;;;;;;1.23;0.90;;;28.30;44.10;;;;;;5027410;28;89487;-48
2022/08/22 13:00:19;;;;;;;2.10;1.10;;;28.40;44.10;;;;;;5030376;28;89087;-48
2022/08/22 13:02:53;;;;;;;3.10;1.00;;;28.50;44.10;;;;;;5027927;28;87901;-48
2022/08/22 13:05:22;;;;;;;1.10;0.90;;;28.60;44.10;;;;;;5028880;28;87176;-47
2022/08/22 13:07:54;;;;;;;2.87;1.33;;;28.70;44.50;;;;;;5030465;28;89295;-48
2022/08/22 13:10:47;;;;;;;1.33;0.80;;;28.70;43.80;;;;;;5028869;28;88787;-48
2022/08/22 13:13:25;;;;;;;0.47;0.47;;;28.70;43.80;;;;;;4997894;28;87117;-48
2022/08/22 13:16:05;;;;;;;0.50;0.50;;;28.80;43.60;;;;;;5017987;28;87107;-48
2022/08/22 13:18:37;;;;;;;0.53;0.53;;;28.80;43.60;;;;;;5019867;28;88924;-47
2022/08/22 13:21:12;;;;;;;1.90;0.70;;;28.90;43.60;;;;;;5029951;28;88789;-47
2022/08/22 13:23:43;;;;;;;1.33;1.00;;;28.90;43.60;;;;;;5026443;28;87423;-48
2022/08/22 13:26:14;;;;;;;0.60;0.60;;;29.00;43.60;;;;;;5028374;28;87053;-48
2022/08/22 13:29:03;;;;;;;3.27;0.80;;;29.10;43.50;;;;;;5016651;28;90167;-48
2022/08/22 13:31:53;;;;;;;1.30;0.80;;;29.20;43.30;;;;;;5017947;28;88412;-47
2022/08/22 13:34:29;;;;;;;3.57;1.20;;;29.30;43.20;;;;;;5017491;28;87018;-47
2022/08/22 13:36:59;;;;;;;10.97;1.80;;;29.40;43.10;;;;;;5023700;28;87016;-47
2022/08/22 13:39:31;;;;;;;18.33;6.57;;;29.40;42.90;;;;;;5017101;28;89313;-48